Time;durP1;ratioP1;P1;durP2;ratioP2;P2;SDS_P1;SDS_P2;PMS_P1;PMS_P2;Temp;Humidity;BMP_temperature;BMP_pressure;BME280_temperature;BME280_humidity;BME280_pressure;Samples;Min_cycle;Max_cycle;Signal;HPM_P1;HPM_P2
2021/08/02 00:00:13;;;;;;;;;1.75;1.75;;;;;20.41;59.98;101148.56;5072428;27;45719;-70
2021/08/02 00:02:46;;;;;;;;;1.00;1.00;;;;;20.39;59.60;101137.13;5072579;27;45467;-69
2021/08/02 00:05:11;;;;;;;;;2.00;0.50;;;;;20.35;59.44;101143.66;5071256;27;45519;-70
2021/08/02 00:07:40;;;;;;;;;0.50;0.50;;;;;20.34;59.75;101145.50;5071415;27;46531;-70
2021/08/02 00:10:11;;;;;;;;;1.00;1.00;;;;;20.31;59.78;101136.88;5072754;27;45552;-70
2021/08/02 00:12:47;;;;;;;;;1.00;1.00;;;;;20.29;60.36;101138.81;5074203;28;45480;-70
2021/08/02 00:15:14;;;;;;;;;2.50;1.75;;;;;20.26;60.47;101137.25;5070910;28;45446;-71
2021/08/02 00:17:42;;;;;;;;;3.75;0.75;;;;;20.23;60.78;101134.78;5072464;27;45531;-70
2021/08/02 00:20:11;;;;;;;;;2.25;1.25;;;;;20.23;60.79;101139.28;5072624;27;45451;-70
2021/08/02 00:22:37;;;;;;;;;3.00;2.00;;;;;20.18;60.23;101126.28;5072897;27;45723;-71
2021/08/02 00:25:04;;;;;;;;;3.00;2.50;;;;;20.20;60.51;101140.38;5072643;27;45556;-70
2021/08/02 00:27:30;;;;;;;;;2.00;1.25;;;;;20.18;61.05;101133.44;5074269;27;46629;-71
2021/08/02 00:29:56;;;;;;;;;1.00;1.00;;;;;20.13;60.28;101131.13;5072310;27;45706;-70
2021/08/02 00:32:22;;;;;;;;;2.00;2.00;;;;;20.07;60.21;101132.44;5072236;27;46381;-70
2021/08/02 00:34:47;;;;;;;;;1.50;1.50;;;;;20.07;60.45;101139.63;5072505;27;45511;-70
2021/08/02 00:37:20;;;;;;;;;2.00;1.75;;;;;20.05;60.74;101141.56;5072794;28;45629;-70
2021/08/02 00:39:53;;;;;;;;;0.75;0.75;;;;;19.99;60.87;101140.22;5070193;28;45375;-70
2021/08/02 00:42:37;;;;;;;;;1.50;0.75;;;;;19.99;61.00;101140.22;5073155;28;45396;-70
2021/08/02 00:45:21;;;;;;;;;4.50;2.00;;;;;19.97;61.55;101139.47;5072454;28;45609;-70
2021/08/02 00:48:05;;;;;;;;;1.50;1.50;;;;;19.98;61.63;101138.47;5074083;27;45570;-70
2021/08/02 00:50:40;;;;;;;;;3.75;2.50;;;;;19.93;61.81;101135.31;5075984;27;45402;-70
2021/08/02 00:53:09;;;;;;;;;3.75;1.50;;;;;19.94;61.82;101139.72;5071276;28;45551;-70
2021/08/02 00:55:39;;;;;;;;;1.00;1.00;;;;;19.93;62.09;101137.97;5072548;28;45561;-70
2021/08/02 00:58:12;;;;;;;;;1.50;1.50;;;;;19.77;61.80;101122.28;5074184;28;46429;-70
2021/08/02 01:00:38;;;;;;;;;1.25;1.25;;;;;19.85;62.00;101147.56;5077696;27;45403;-70
2021/08/02 01:03:07;;;;;;;;;2.50;2.00;;;;;19.75;62.58;101132.22;5074118;27;45486;-70
2021/08/02 01:05:37;;;;;;;;;3.00;1.50;;;;;19.81;62.50;101147.78;5075730;27;45709;-71
2021/08/02 01:08:08;;;;;;;;;2.00;2.00;;;;;19.76;62.51;101136.59;5075313;27;45482;-70
2021/08/02 01:10:36;;;;;;;;;3.00;1.25;;;;;19.74;62.74;101143.03;5074661;27;45671;-70
2021/08/02 01:13:07;;;;;;;;;4.00;2.50;;;;;19.64;62.38;101137.53;5075815;27;45339;-70
2021/08/02 01:15:33;;;;;;;;;3.00;2.00;;;;;19.62;62.51;101136.78;5077047;27;45650;-70
2021/08/02 01:18:01;;;;;;;;;2.50;2.50;;;;;19.55;62.47;101136.34;5073637;28;46588;-70
2021/08/02 01:20:31;;;;;;;;;2.75;1.00;;;;;19.49;62.78;101135.97;5075596;27;45418;-70
2021/08/02 01:23:00;;;;;;;;;2.50;2.50;;;;;19.43;63.44;101134.59;5073655;27;45490;-70
2021/08/02 01:25:34;;;;;;;;;3.00;1.75;;;;;19.41;63.56;101135.66;5073824;28;45743;-70
2021/08/02 01:28:14;;;;;;;;;4.25;1.25;;;;;19.36;63.50;101144.00;5075246;27;46443;-71
2021/08/02 01:30:53;;;;;;;;;4.25;3.00;;;;;19.30;63.54;101142.63;5072577;28;45318;-71
2021/08/02 01:33:28;;;;;;;;;1.50;1.50;;;;;19.26;63.86;101143.84;5076764;27;45662;-71
2021/08/02 01:35:54;;;;;;;;;2.50;2.50;;;;;19.19;64.12;101142.56;5073231;27;45470;-70
2021/08/02 01:38:20;;;;;;;;;3.75;2.50;;;;;19.15;64.71;101145.56;5074883;27;46320;-70
2021/08/02 01:40:45;;;;;;;;;4.00;2.50;;;;;19.08;64.68;101139.84;5073072;27;45422;-70
2021/08/02 01:43:11;;;;;;;;;1.00;1.00;;;;;19.04;65.08;101146.34;5074188;28;59924;-70
2021/08/02 01:45:57;;;;;;;;;2.75;2.75;;;;;19.00;65.31;101148.38;5077278;27;45453;-72
2021/08/02 01:48:38;;;;;;;;;2.00;2.00;;;;;18.94;64.97;101142.63;5076531;28;46570;-70
2021/08/02 01:51:15;;;;;;;;;2.75;2.00;;;;;18.84;65.15;101144.25;5074630;27;45780;-70
2021/08/02 01:54:02;;;;;;;;;2.75;2.25;;;;;18.79;65.61;101141.91;5074668;28;45636;-70
2021/08/02 01:56:36;;;;;;;;;1.50;1.50;;;;;18.70;65.57;101143.44;5073657;28;45548;-70
2021/08/02 01:59:13;;;;;;;;;3.75;2.00;;;;;18.68;65.79;101136.50;5070024;28;46486;-70
2021/08/02 02:01:45;;;;;;;;;3.25;1.50;;;;;18.66;65.48;101149.03;5075322;27;45390;-69
2021/08/02 02:04:14;;;;;;;;;2.50;2.25;;;;;18.60;66.25;101147.66;5073838;27;45363;-70
2021/08/02 02:06:45;;;;;;;;;2.75;2.00;;;;;18.55;66.45;101155.13;5109831;27;45372;-70
2021/08/02 02:09:13;;;;;;;;;4.25;3.00;;;;;18.51;66.28;101151.81;5074175;28;47450;-70
2021/08/02 02:11:43;;;;;;;;;2.75;2.75;;;;;18.47;66.77;101147.66;5074362;27;45382;-69
2021/08/02 02:14:10;;;;;;;;;2.50;2.00;;;;;18.45;66.76;101152.22;5074331;28;45354;-70
2021/08/02 02:16:51;;;;;;;;;6.00;2.50;;;;;18.42;67.12;101154.25;5074285;27;45357;-70
2021/08/02 02:19:21;;;;;;;;;3.00;3.00;;;;;18.38;67.26;101153.63;5057716;27;46301;-70
2021/08/02 02:21:51;;;;;;;;;2.00;2.00;;;;;18.25;67.51;101134.13;5075859;27;45404;-70
2021/08/02 02:24:18;;;;;;;;;2.25;2.25;;;;;18.28;67.06;101152.56;5074911;27;45374;-70
2021/08/02 02:26:45;;;;;;;;;5.00;4.00;;;;;18.28;67.63;101144.56;5073996;27;45447;-70
2021/08/02 02:29:14;;;;;;;;;3.25;3.25;;;;;18.23;67.44;101146.69;5073928;27;47251;-70
2021/08/02 02:31:42;;;;;;;;;3.50;3.50;;;;;18.20;67.45;101137.09;5073352;27;45953;-70
2021/08/02 02:34:09;;;;;;;;;4.00;3.00;;;;;18.15;67.72;101139.22;5074091;28;45356;-69
2021/08/02 02:36:37;;;;;;;;;3.75;3.75;;;;;18.11;68.17;101136.88;5076322;27;45398;-70
2021/08/02 02:39:04;;;;;;;;;3.00;3.00;;;;;18.09;67.91;101134.31;5073379;27;46386;-70
2021/08/02 02:41:32;;;;;;;;;3.75;2.00;;;;;18.08;68.22;101139.75;5072521;27;45664;-70
2021/08/02 02:43:59;;;;;;;;;4.25;4.25;;;;;18.05;68.08;101137.28;5071899;27;45546;-70
2021/08/02 02:46:25;;;;;;;;;5.00;3.00;;;;;17.99;68.35;101144.72;5073990;27;45512;-70
2021/08/02 02:48:52;;;;;;;;;7.00;4.00;;;;;17.98;68.73;101143.03;5074623;27;46480;-71
2021/08/02 02:51:19;;;;;;;;;7.00;4.00;;;;;17.96;68.80;101136.97;5075365;28;45878;-70
2021/08/02 02:53:45;;;;;;;;;3.00;3.00;;;;;17.94;69.02;101143.34;5068811;28;45265;-71
2021/08/02 02:56:13;;;;;;;;;5.00;4.75;;;;;17.92;68.98;101147.91;5074202;27;45795;-70
2021/08/02 02:58:40;;;;;;;;;3.25;3.25;;;;;17.93;69.15;101149.63;5072314;27;45389;-71
2021/08/02 03:01:06;;;;;;;;;4.50;4.00;;;;;17.87;69.07;101142.06;5073091;27;45407;-71
2021/08/02 03:03:35;;;;;;;;;4.75;4.00;;;;;17.83;69.23;101146.72;5075594;27;45366;-71
2021/08/02 03:06:01;;;;;;;;;4.75;4.25;;;;;17.81;69.09;101155.78;5072428;28;45393;-72
2021/08/02 03:08:28;;;;;;;;;4.75;4.50;;;;;17.74;69.39;101150.84;5072695;27;46097;-72
2021/08/02 03:10:56;;;;;;;;;6.00;4.50;;;;;17.71;69.43;101142.19;5073697;27;45756;-72
2021/08/02 03:13:22;;;;;;;;;5.00;5.00;;;;;17.71;69.55;101144.84;5073479;27;45413;-70
2021/08/02 03:15:47;;;;;;;;;6.25;4.75;;;;;17.70;69.28;101148.47;5074880;27;45582;-70
2021/08/02 03:18:12;;;;;;;;;5.50;4.00;;;;;17.65;69.43;101146.13;5073842;27;46348;-70
2021/08/02 03:20:40;;;;;;;;;5.50;4.00;;;;;17.63;69.90;101155.13;5071476;28;45461;-71
2021/08/02 03:23:16;;;;;;;;;5.00;4.00;;;;;17.61;69.92;101149.91;5071691;27;45457;-69
2021/08/02 03:25:51;;;;;;;;;4.25;4.00;;;;;17.57;70.14;101152.88;5073828;28;45312;-70
2021/08/02 03:28:46;;;;;;;;;4.00;4.00;;;;;17.52;70.33;101150.53;5057377;28;46597;-70
2021/08/02 03:31:17;;;;;;;;;4.50;4.50;;;;;17.54;70.59;101161.03;5072960;27;45277;-69
2021/08/02 03:33:45;;;;;;;;;4.25;4.25;;;;;17.50;70.32;101155.09;5071177;28;45582;-70
2021/08/02 03:36:15;;;;;;;;;7.25;5.00;;;;;17.47;70.33;101160.59;5073246;28;45544;-69
2021/08/02 03:38:45;;;;;;;;;1.75;1.75;;;;;17.43;70.66;101162.59;5071137;27;45495;-69
2021/08/02 03:41:12;;;;;;;;;4.50;4.00;;;;;17.37;70.52;101156.81;5073094;28;45324;-70
2021/08/02 03:43:40;;;;;;;;;5.00;5.00;;;;;17.38;70.98;101167.38;5073562;27;45388;-69
2021/08/02 03:46:07;;;;;;;;;4.50;4.50;;;;;17.34;70.95;101173.84;5073058;27;47933;-69
2021/08/02 03:48:36;;;;;;;;;4.50;4.50;;;;;17.31;70.95;101170.50;5074650;28;46602;-70
2021/08/02 03:51:02;;;;;;;;;5.25;5.00;;;;;17.31;71.07;101171.34;5072594;27;45311;-70
2021/08/02 03:53:41;;;;;;;;;8.25;5.50;;;;;17.28;71.11;101165.38;5073363;27;45451;-70
2021/08/02 03:56:07;;;;;;;;;6.25;4.00;;;;;17.24;71.04;101158.59;5072871;28;45392;-70
2021/08/02 03:58:33;;;;;;;;;4.75;4.75;;;;;17.28;71.23;101174.22;5071370;27;45665;-70
2021/08/02 04:00:58;;;;;;;;;4.75;4.00;;;;;17.27;71.40;101177.81;5073473;27;45520;-70
2021/08/02 04:03:23;;;;;;;;;7.00;5.25;;;;;17.24;71.40;101175.38;5072076;28;50511;-70
2021/08/02 04:05:49;;;;;;;;;5.00;5.00;;;;;17.23;71.50;101173.66;5072593;27;45276;-70
2021/08/02 04:08:14;;;;;;;;;5.25;5.25;;;;;17.21;71.41;101176.41;5072736;27;46533;-70
2021/08/02 04:10:40;;;;;;;;;5.00;4.75;;;;;17.18;71.47;101181.94;5073118;28;45433;-69
2021/08/02 04:13:05;;;;;;;;;5.75;4.25;;;;;17.18;71.42;101178.41;5072543;28;45265;-70
2021/08/02 04:15:30;;;;;;;;;5.00;5.00;;;;;17.16;71.68;101185.63;5074809;27;45369;-70
2021/08/02 04:17:55;;;;;;;;;5.50;4.00;;;;;17.16;71.84;101182.97;5071074;27;46504;-70
2021/08/02 04:20:21;;;;;;;;;5.75;5.25;;;;;17.14;72.08;101191.03;5091032;27;45611;-70
2021/08/02 04:22:49;;;;;;;;;6.50;5.00;;;;;17.12;72.36;101190.28;5076117;28;47617;-70
2021/08/02 04:25:15;;;;;;;;;6.00;5.00;;;;;17.12;71.96;101198.25;5060625;27;45405;-69
2021/08/02 04:27:40;;;;;;;;;7.50;5.00;;;;;17.10;72.65;101186.84;5073578;28;46274;-69
2021/08/02 04:30:06;;;;;;;;;6.75;5.50;;;;;17.06;72.63;101192.44;5075264;27;51060;-70
2021/08/02 04:32:31;;;;;;;;;10.00;6.00;;;;;17.13;72.67;101207.06;5071468;28;45403;-70
2021/08/02 04:34:57;;;;;;;;;5.50;5.50;;;;;17.10;72.40;101196.63;5075358;27;45706;-70
2021/08/02 04:37:22;;;;;;;;;9.25;7.50;;;;;17.12;72.70;101211.53;5074630;28;45504;-70
2021/08/02 04:39:47;;;;;;;;;7.75;7.00;;;;;17.13;73.25;101212.38;5077326;28;46699;-70
2021/08/02 04:42:13;;;;;;;;;8.00;6.25;;;;;17.12;72.91;101213.31;5074869;28;45297;-70
2021/08/02 04:44:38;;;;;;;;;9.75;7.75;;;;;17.13;73.30;101212.38;5075671;27;45347;-70
2021/08/02 04:47:04;;;;;;;;;6.75;5.50;;;;;17.13;73.13;101209.72;5075388;28;60697;-70
2021/08/02 04:49:29;;;;;;;;;8.25;7.25;;;;;17.16;72.98;101199.75;5075265;27;45488;-69
2021/08/02 04:51:55;;;;;;;;;9.50;6.00;;;;;17.20;73.19;101203.91;5076564;28;45279;-70
2021/08/02 04:54:20;;;;;;;;;6.25;6.00;;;;;17.18;73.00;101200.53;5076774;27;55831;-69
2021/08/02 04:56:45;;;;;;;;;6.00;5.00;;;;;17.22;73.14;101199.34;5074103;27;45469;-70
2021/08/02 04:59:11;;;;;;;;;8.25;5.50;;;;;17.20;72.95;101203.91;5075070;28;45271;-70
2021/08/02 05:01:36;;;;;;;;;8.00;6.25;;;;;17.25;73.13;101208.94;5075444;27;45394;-70
2021/08/02 05:04:01;;;;;;;;;7.50;6.25;;;;;17.23;73.42;101200.22;5075229;27;45419;-71
2021/08/02 05:06:27;;;;;;;;;9.25;7.25;;;;;17.28;73.49;101207.88;5093205;27;46259;-71
2021/08/02 05:08:52;;;;;;;;;6.75;6.25;;;;;17.33;73.20;101208.44;5075502;27;45389;-70
2021/08/02 05:11:17;;;;;;;;;10.25;7.50;;;;;17.36;72.77;101211.78;5075840;27;45747;-70
2021/08/02 05:13:43;;;;;;;;;5.00;4.00;;;;;17.37;72.91;101208.16;5074951;28;57507;-70
2021/08/02 05:16:09;;;;;;;;;5.25;4.75;;;;;17.41;73.45;101209.66;5074792;27;45381;-70
2021/08/02 05:18:34;;;;;;;;;7.00;5.00;;;;;17.48;73.32;101223.41;5075840;28;45755;-72
2021/08/02 05:20:59;;;;;;;;;9.25;6.00;;;;;17.54;72.90;101219.50;5073992;28;45391;-70
2021/08/02 05:23:25;;;;;;;;;5.75;5.00;;;;;17.63;72.86;101221.56;5075042;27;45322;-70
2021/08/02 05:25:50;;;;;;;;;4.25;4.00;;;;;17.70;72.61;101217.59;5070842;28;46248;-71
2021/08/02 05:28:18;;;;;;;;;8.00;7.25;;;;;17.79;73.10;101227.63;5072469;28;45646;-70
2021/08/02 05:30:43;;;;;;;;;5.75;5.00;;;;;17.87;73.01;101220.03;5077103;27;45479;-70
2021/08/02 05:33:09;;;;;;;;;5.00;5.00;;;;;17.97;72.69;101214.94;5074764;28;45271;-70
2021/08/02 05:35:34;;;;;;;;;5.50;5.50;;;;;18.11;72.67;101216.66;5073633;27;46270;-70
2021/08/02 05:37:59;;;;;;;;;7.50;6.25;;;;;18.34;72.24;101220.47;5074752;28;45712;-70
2021/08/02 05:40:25;;;;;;;;;8.50;8.00;;;;;18.61;72.52;101220.38;5075389;28;45377;-72
2021/08/02 05:42:50;;;;;;;;;5.00;5.00;;;;;18.86;71.57;101225.75;5076423;27;45594;-72
2021/08/02 05:45:15;;;;;;;;;5.25;5.25;;;;;19.08;71.65;101224.22;5090843;27;51191;-70
2021/08/02 05:47:41;;;;;;;;;5.75;5.50;;;;;19.32;71.68;101218.97;5074155;28;45595;-70
2021/08/02 05:50:07;;;;;;;;;6.25;5.50;;;;;19.51;70.40;101222.00;5075094;28;45753;-70
2021/08/02 05:52:33;;;;;;;;;7.50;5.25;;;;;19.67;70.06;101222.59;5074483;27;45444;-70
2021/08/02 05:54:59;;;;;;;;;5.75;4.50;;;;;19.88;69.25;101222.84;5075508;27;46105;-70
2021/08/02 05:57:24;;;;;;;;;6.00;5.25;;;;;20.07;69.25;101235.66;5073412;27;45529;-70
2021/08/02 05:59:50;;;;;;;;;6.00;5.00;;;;;20.14;68.40;101231.56;5073712;28;45488;-70
2021/08/02 06:02:16;;;;;;;;;5.75;5.75;;;;;20.22;67.70;101236.34;5074071;28;45387;-70
2021/08/02 06:04:42;;;;;;;;;4.25;2.75;;;;;20.25;67.63;101233.41;5074302;27;45712;-70
2021/08/02 06:07:07;;;;;;;;;6.00;6.00;;;;;20.30;67.35;101236.59;5072547;28;45423;-70
2021/08/02 06:09:33;;;;;;;;;5.00;3.75;;;;;20.34;67.30;101233.56;5076309;27;45508;-70
2021/08/02 06:11:59;;;;;;;;;4.75;4.25;;;;;20.44;67.18;101239.06;5073428;28;45322;-71
2021/08/02 06:14:24;;;;;;;;;5.50;4.50;;;;;20.56;67.03;101243.50;5072394;27;46559;-70
2021/08/02 06:16:50;;;;;;;;;7.25;5.25;;;;;20.66;67.23;101230.28;5072837;27;61341;-70
2021/08/02 06:19:15;;;;;;;;;2.50;2.50;;;;;20.79;66.64;101243.56;5072701;27;45502;-70
2021/08/02 06:21:41;;;;;;;;;6.25;4.00;;;;;20.89;67.05;101239.19;5070922;28;45385;-70
2021/08/02 06:24:07;;;;;;;;;6.25;4.00;;;;;21.01;66.48;101237.38;5073988;27;46105;-70
2021/08/02 06:26:33;;;;;;;;;6.50;4.75;;;;;21.14;65.60;101242.59;5074114;27;45441;-70
2021/08/02 06:28:58;;;;;;;;;4.25;3.50;;;;;21.26;65.45;101239.81;5074281;27;45319;-70
2021/08/02 06:31:24;;;;;;;;;6.75;4.50;;;;;21.40;65.49;101248.56;5070087;28;45463;-70
2021/08/02 06:33:49;;;;;;;;;3.50;3.25;;;;;21.53;65.39;101246.59;5071699;28;46181;-70
2021/08/02 06:36:17;;;;;;;;;3.75;3.75;;;;;21.62;64.99;101248.53;5089536;27;45493;-70
2021/08/02 06:38:42;;;;;;;;;3.00;3.00;;;;;21.70;64.73;101245.22;5070739;28;45771;-70
2021/08/02 06:41:08;;;;;;;;;5.00;4.75;;;;;21.80;64.09;101248.84;5074088;27;45492;-70
2021/08/02 06:43:33;;;;;;;;;5.00;3.00;;;;;21.86;63.91;101245.66;5073397;28;46714;-70
2021/08/02 06:45:58;;;;;;;;;2.25;2.25;;;;;21.90;63.25;101244.44;5074183;27;45432;-70
2021/08/02 06:48:23;;;;;;;;;3.75;3.75;;;;;21.96;62.86;101251.13;5075557;27;45393;-70
2021/08/02 06:50:49;;;;;;;;;5.25;4.50;;;;;22.06;62.97;101263.59;5073440;28;48827;-70
2021/08/02 06:53:15;;;;;;;;;3.00;3.00;;;;;22.18;62.82;101252.88;5072339;27;46504;-70
2021/08/02 06:55:40;;;;;;;;;4.00;4.00;;;;;22.29;62.08;101255.50;5073871;27;45494;-70
2021/08/02 06:58:05;;;;;;;;;3.00;3.00;;;;;22.49;62.44;101248.47;5073877;27;45388;-70
2021/08/02 07:00:31;;;;;;;;;3.00;3.00;;;;;22.60;61.80;101249.28;5074784;27;45398;-70
2021/08/02 07:02:58;;;;;;;;;5.00;3.25;;;;;22.70;61.78;101253.81;5073307;28;47171;-70
2021/08/02 07:05:24;;;;;;;;;3.50;3.50;;;;;22.77;61.05;101255.84;5073449;28;45948;-70
2021/08/02 07:07:50;;;;;;;;;7.00;3.00;;;;;22.89;61.11;101259.34;5073813;27;45436;-70
2021/08/02 07:10:15;;;;;;;;;3.50;3.50;;;;;23.06;60.47;101263.22;5073848;27;45433;-70
2021/08/02 07:12:40;;;;;;;;;6.00;5.25;;;;;23.17;60.29;101255.94;5075211;27;45540;-70
2021/08/02 07:15:06;;;;;;;;;6.00;5.75;;;;;23.28;59.28;101249.63;5071433;28;45350;-70
2021/08/02 07:17:32;;;;;;;;;4.75;4.75;;;;;23.38;59.21;101257.69;5073447;27;45311;-70
2021/08/02 07:19:57;;;;;;;;;5.25;4.25;;;;;23.51;58.87;101252.97;5073287;27;45441;-70
2021/08/02 07:22:22;;;;;;;;;4.50;3.50;;;;;23.62;58.55;101260.88;5073908;28;46375;-70
2021/08/02 07:24:47;;;;;;;;;6.00;4.50;;;;;23.62;58.41;101249.31;5074450;28;53946;-71
2021/08/02 07:27:13;;;;;;;;;5.25;4.75;;;;;23.65;58.63;101249.94;5073797;27;45286;-70
2021/08/02 07:29:38;;;;;;;;;3.75;3.00;;;;;23.69;58.28;101262.06;5072575;28;45361;-70
2021/08/02 07:32:04;;;;;;;;;5.25;3.25;;;;;23.70;58.73;101254.88;5072358;27;47598;-70
2021/08/02 07:34:29;;;;;;;;;5.75;4.25;;;;;23.68;57.79;101257.69;5073267;28;45262;-70
2021/08/02 07:36:55;;;;;;;;;4.25;4.25;;;;;23.61;58.70;101256.50;5074106;27;45306;-71
2021/08/02 07:39:20;;;;;;;;;6.00;4.00;;;;;23.55;58.37;101243.66;5074457;28;45552;-70
2021/08/02 07:41:45;;;;;;;;;4.00;4.00;;;;;23.56;58.54;101247.19;5073159;28;48456;-70
2021/08/02 07:44:10;;;;;;;;;6.75;4.00;;;;;23.61;57.95;101251.16;5072325;28;52245;-70
2021/08/02 07:46:36;;;;;;;;;3.75;3.25;;;;;23.65;57.80;101257.13;5072876;28;48837;-70
2021/08/02 07:49:01;;;;;;;;;5.25;4.00;;;;;23.69;58.22;101247.78;5073305;27;45284;-71
2021/08/02 07:51:28;;;;;;;;;4.50;4.00;;;;;23.77;57.32;101255.16;5074776;27;46551;-70
2021/08/02 07:53:55;;;;;;;;;5.75;4.25;;;;;23.75;57.53;101257.97;5071164;28;45575;-71
2021/08/02 07:56:20;;;;;;;;;8.25;4.50;;;;;23.83;56.63;101254.59;5076326;27;45560;-71
2021/08/02 07:58:45;;;;;;;;;6.00;5.00;;;;;24.00;56.75;101266.50;5076539;27;45343;-71
2021/08/02 08:01:11;;;;;;;;;4.75;4.00;;;;;24.19;56.80;101264.66;5076132;27;54151;-71
2021/08/02 08:03:36;;;;;;;;;6.00;4.75;;;;;24.28;56.01;101256.75;5077218;27;54268;-71
2021/08/02 08:06:01;;;;;;;;;5.50;5.25;;;;;24.49;54.88;101259.31;5075355;28;45391;-72
2021/08/02 08:08:27;;;;;;;;;4.00;3.75;;;;;24.60;54.94;101257.31;5075403;27;48878;-71
2021/08/02 08:10:52;;;;;;;;;5.00;5.00;;;;;24.72;54.82;101255.31;5074343;27;45567;-71
2021/08/02 08:13:18;;;;;;;;;10.00;6.00;;;;;24.86;55.23;101260.22;5076320;27;45595;-71
2021/08/02 08:15:43;;;;;;;;;6.25;4.75;;;;;24.94;55.19;101252.25;5078593;27;45539;-71
2021/08/02 08:18:08;;;;;;;;;8.25;4.50;;;;;25.03;54.22;101249.69;5076203;28;45465;-71
2021/08/02 08:20:34;;;;;;;;;5.25;4.00;;;;;25.14;54.28;101255.75;5076358;27;45570;-71
2021/08/02 08:22:59;;;;;;;;;4.50;4.25;;;;;25.31;54.03;101256.81;5076110;27;45651;-71
2021/08/02 08:25:24;;;;;;;;;5.50;5.00;;;;;25.59;53.66;101259.53;5075937;28;45248;-71
2021/08/02 08:27:50;;;;;;;;;5.00;5.00;;;;;25.91;53.32;101259.91;5077490;27;45403;-71
2021/08/02 08:30:18;;;;;;;;;5.00;4.00;;;;;26.20;52.46;101256.13;5076279;27;45447;-71
2021/08/02 08:32:43;;;;;;;;;4.50;4.50;;;;;26.49;52.01;101253.22;5074579;28;45713;-71
2021/08/02 08:35:10;;;;;;;;;6.00;4.25;;;;;26.72;51.09;101254.38;5076040;27;45488;-71
2021/08/02 08:37:37;;;;;;;;;4.25;4.00;;;;;27.00;51.51;101246.97;5076045;27;45827;-72
2021/08/02 08:40:05;;;;;;;;;6.50;6.00;;;;;27.31;50.54;101244.63;5075429;27;45843;-71
2021/08/02 08:42:30;;;;;;;;;4.75;4.75;;;;;27.53;50.25;101253.97;5078341;27;45757;-71
2021/08/02 08:44:55;;;;;;;;;5.00;4.50;;;;;27.69;49.60;101246.94;5075921;27;45741;-71
2021/08/02 08:47:21;;;;;;;;;6.50;4.75;;;;;27.99;49.91;101250.91;5075341;27;45420;-71
2021/08/02 08:49:46;;;;;;;;;4.00;4.00;;;;;28.24;48.67;101251.75;5073418;27;45635;-71
2021/08/02 08:52:14;;;;;;;;;5.00;4.00;;;;;28.32;47.86;101249.06;5075130;27;45430;-71
2021/08/02 08:54:42;;;;;;;;;4.25;4.25;;;;;28.28;46.80;101261.22;5074882;27;45419;-71
2021/08/02 08:57:09;;;;;;;;;5.75;5.75;;;;;28.42;46.79;101254.34;5074494;27;45370;-71
2021/08/02 08:59:48;;;;;;;;;4.75;4.25;;;;;28.44;46.72;101258.53;5072523;28;47262;-72
2021/08/02 09:02:13;;;;;;;;;5.75;3.75;;;;;28.47;47.01;101257.38;5074529;27;45318;-71
2021/08/02 09:04:40;;;;;;;;;3.25;3.25;;;;;28.96;46.61;101252.72;5074539;27;45327;-71
2021/08/02 09:07:06;;;;;;;;;6.25;4.25;;;;;29.33;46.97;101267.50;5074155;27;45330;-71
2021/08/02 09:09:34;;;;;;;;;4.00;4.00;;;;;29.73;45.82;101258.34;5075703;27;46773;-71
2021/08/02 09:12:07;;;;;;;;;4.50;3.50;;;;;29.88;44.97;101247.59;5073114;27;45794;-71
2021/08/02 09:14:33;;;;;;;;;3.50;3.50;;;;;30.05;44.11;101257.28;5074211;27;45456;-71
2021/08/02 09:17:00;;;;;;;;;5.25;4.25;;;;;30.20;43.24;101259.25;5073697;27;45516;-72
2021/08/02 09:19:37;;;;;;;;;1.50;1.50;;;;;30.36;42.87;101259.13;5073832;27;46446;-71
2021/08/02 09:22:02;;;;;;;;;4.00;4.00;;;;;30.49;42.26;101259.34;5090348;27;45288;-71
2021/08/02 09:24:32;;;;;;;;;6.00;6.00;;;;;30.10;42.42;101267.59;5075828;28;45540;-71
2021/08/02 09:26:58;;;;;;;;;5.75;5.75;;;;;29.77;42.96;101259.69;5073972;27;45412;-71
2021/08/02 09:29:34;;;;;;;;;5.75;5.75;;;;;29.70;42.48;101261.41;5072931;27;46387;-71
2021/08/02 09:32:07;;;;;;;;;8.00;6.75;;;;;29.72;42.77;101259.38;5073805;27;45786;-71
2021/08/02 09:34:32;;;;;;;;;3.75;3.00;;;;;30.05;41.84;101259.16;5074103;27;45316;-71
2021/08/02 09:36:57;;;;;;;;;8.25;6.50;;;;;30.32;41.12;101263.22;5074391;27;45485;-71
2021/08/02 09:39:32;;;;;;;;;7.00;6.25;;;;;30.54;41.19;101266.91;5074714;28;45382;-71
2021/08/02 09:42:03;;;;;;;;;5.00;5.00;;;;;30.73;41.01;101255.56;5073938;27;45740;-71
2021/08/02 09:44:28;;;;;;;;;6.00;5.75;;;;;31.03;40.92;101258.31;5073854;27;45413;-71
2021/08/02 09:46:58;;;;;;;;;8.00;6.50;;;;;31.10;38.74;101259.25;5032193;27;1160381;-71
2021/08/02 09:49:24;;;;;;;;;5.00;5.00;;;;;31.01;39.91;101255.78;5073400;27;45212;-72
2021/08/02 09:51:50;;;;;;;;;6.00;4.50;;;;;30.87;39.49;101267.47;5076179;27;45292;-71
2021/08/02 09:54:29;;;;;;;;;4.25;2.50;;;;;31.15;39.88;101260.34;5074940;27;45239;-72
2021/08/02 09:56:55;;;;;;;;;3.00;3.00;;;;;31.56;41.14;101256.31;5074670;27;45554;-71
2021/08/02 09:59:22;;;;;;;;;4.50;4.50;;;;;31.93;40.43;101266.16;5074287;28;46273;-72
2021/08/02 10:01:50;;;;;;;;;4.00;3.50;;;;;32.38;39.57;101255.97;5074712;27;45525;-71
2021/08/02 10:04:17;;;;;;;;;3.00;2.50;;;;;32.67;39.49;101246.75;5058916;28;45383;-72
2021/08/02 10:06:43;;;;;;;;;7.75;7.00;;;;;32.73;38.43;101249.53;5072415;27;45296;-71
2021/08/02 10:09:11;;;;;;;;;4.75;4.75;;;;;32.48;38.29;101253.75;5073031;27;46168;-71
2021/08/02 10:11:37;;;;;;;;;3.00;2.75;;;;;32.42;37.02;101249.06;5073920;27;45967;-71
2021/08/02 10:14:02;;;;;;;;;4.75;3.00;;;;;32.43;37.41;101251.63;5074789;27;45490;-71
2021/08/02 10:16:30;;;;;;;;;3.25;2.50;;;;;32.45;37.43;101252.25;5074227;27;45362;-71
2021/08/02 10:19:10;;;;;;;;;6.00;4.00;;;;;32.38;37.50;101256.81;5073503;28;45381;-71
2021/08/02 10:21:43;;;;;;;;;5.00;3.25;;;;;32.19;37.77;101250.09;5075081;28;45390;-71
2021/08/02 10:24:11;;;;;;;;;3.00;3.00;;;;;31.92;37.37;101251.72;5073762;27;45492;-72
2021/08/02 10:26:37;;;;;;;;;3.00;3.00;;;;;31.57;36.69;101242.53;5072777;28;45592;-71
2021/08/02 10:29:07;;;;;;;;;6.50;2.75;;;;;31.14;38.50;101247.81;5072521;28;46944;-72
2021/08/02 10:31:55;;;;;;;;;3.25;3.25;;;;;30.80;37.64;101248.41;5074616;27;45476;-71
2021/08/02 10:34:22;;;;;;;;;2.00;2.00;;;;;30.61;38.39;101251.59;5091685;27;45606;-71
2021/08/02 10:37:03;;;;;;;;;3.00;2.50;;;;;30.47;39.30;101255.97;5075218;27;45355;-71
2021/08/02 10:39:31;;;;;;;;;3.25;3.00;;;;;30.54;38.44;101245.22;5072746;28;47225;-71
2021/08/02 10:42:10;;;;;;;;;4.75;2.00;;;;;30.52;37.69;101253.53;5073813;27;45779;-71
2021/08/02 10:44:36;;;;;;;;;2.00;2.00;;;;;30.45;38.23;101233.63;5073936;27;45704;-71
2021/08/02 10:47:09;;;;;;;;;4.00;4.00;;;;;30.51;38.09;101241.00;5072431;27;45492;-72
2021/08/02 10:49:35;;;;;;;;;3.50;3.50;;;;;30.57;37.90;101240.28;5074011;27;45425;-71
2021/08/02 10:52:01;;;;;;;;;5.75;3.25;;;;;30.66;38.08;101239.16;5072487;28;45577;-72
2021/08/02 10:54:38;;;;;;;;;4.50;4.25;;;;;30.73;37.20;101243.88;5075498;28;45487;-71
2021/08/02 10:57:12;;;;;;;;;3.00;3.00;;;;;30.88;37.85;101240.16;5073560;27;45390;-72
2021/08/02 10:59:38;;;;;;;;;2.25;2.00;;;;;31.22;38.86;101246.88;5073663;28;45461;-71
2021/08/02 11:02:11;;;;;;;;;3.75;3.00;;;;;31.57;37.97;101236.25;5073541;27;45782;-71
2021/08/02 11:04:38;;;;;;;;;2.75;2.75;;;;;31.98;37.77;101241.97;5073792;27;45528;-71
2021/08/02 11:07:04;;;;;;;;;0.00;0.00;;;;;32.21;36.16;101241.75;5073900;27;45490;-71
2021/08/02 11:09:32;;;;;;;;;2.00;2.00;;;;;32.06;35.50;101239.13;5074046;28;45611;-71
2021/08/02 11:12:05;;;;;;;;;0.50;0.50;;;;;31.98;37.43;101246.56;5073392;27;45331;-71
2021/08/02 11:14:31;;;;;;;;;3.00;1.25;;;;;31.75;37.08;101244.00;5073429;27;45392;-71
2021/08/02 11:16:57;;;;;;;;;3.50;2.50;;;;;31.65;36.83;101237.00;5072398;27;45622;-71
2021/08/02 11:19:28;;;;;;;;;2.50;1.50;;;;;31.54;36.39;101233.94;5072801;28;45570;-72
2021/08/02 11:22:00;;;;;;;;;1.00;1.00;;;;;31.37;37.14;101236.00;5073567;28;45469;-71
2021/08/02 11:24:31;;;;;;;;;1.75;1.75;;;;;31.36;37.53;101232.47;5072938;28;45371;-71
2021/08/02 11:26:58;;;;;;;;;0.50;0.50;;;;;31.39;37.89;101232.09;5072017;27;45412;-71